Valley View, Texas
Current Conditions -  °F | °C
As of 11:15 AM on Friday 31 Oct 2014 (Local Time) from KGLE Reporting Station
Clear Clear  
Wind Chill: 57°   Ceiling: Unl
Heat Index: 57°   Visibility: 10mi
Dew Point: 41°   Wind: 15mph
Humidity: 55%   Direction: 360°N
Pressure: 30.39"   Gusts: 23mph
Location:  33.49°N, 97.17°W
Report Text: KGLE 311615Z AUTO 36013G20KT 10SM CLR 14/05 A3039 RMK AO2 T01370048
Loading
Personal Weather Stations






























Interactive Weather Map
Tropical Storm Tracking
New forecast layout! Learn more

10-Day Weather Forecast

Advertisements
Track Severe Weather on mobile